Time;durP1;ratioP1;P1;durP2;ratioP2;P2;SDS_P1;SDS_P2;PMS_P1;PMS_P2;Temp;Humidity;BMP_temperature;BMP_pressure;BME280_temperature;BME280_humidity;BME280_pressure;Samples;Min_cycle;Max_cycle;Signal;HPM_P1;HPM_P2
2022/11/08 00:01:33;;;;;;;48.25;22.85;;;;;;;9.63;100.00;99183.38;5172639;27;20102;-47
2022/11/08 00:04:01;;;;;;;43.72;21.70;;;;;;;9.60;100.00;99189.56;5175580;27;20054;-47
2022/11/08 00:14:42;;;;;;;42.58;21.15;;;;;;;9.33;100.00;99156.53;5175389;27;20106;-47
2022/11/08 00:17:09;;;;;;;44.78;20.33;;;;;;;9.18;100.00;99174.53;5175278;27;20058;-47
2022/11/08 00:19:36;;;;;;;47.97;20.38;;;;;;;9.29;100.00;99174.00;5175018;27;20046;-46
2022/11/08 00:22:02;;;;;;;47.95;20.23;;;;;;;9.42;100.00;99181.75;5174876;27;20403;-46
2022/11/08 00:24:28;;;;;;;44.35;20.02;;;;;;;9.46;100.00;99206.44;5175144;27;20046;-46
2022/11/08 00:26:54;;;;;;;45.75;20.70;;;;;;;9.50;100.00;99220.22;5175196;27;20054;-47
2022/11/08 00:29:20;;;;;;;42.30;20.38;;;;;;;9.33;100.00;99230.41;5174871;27;20042;-47
2022/11/08 00:31:47;;;;;;;40.65;19.35;;;;;;;9.29;100.00;99245.13;5174886;27;20058;-46
2022/11/08 00:34:14;;;;;;;45.65;20.75;;;;;;;9.35;100.00;99251.94;5174714;27;20046;-46
2022/11/08 00:36:40;;;;;;;50.58;20.15;;;;;;;9.15;100.00;99257.31;5174770;27;20085;-46
2022/11/08 00:39:06;;;;;;;49.67;21.48;;;;;;;9.33;100.00;99252.28;5174709;27;20046;-46
2022/11/08 00:41:32;;;;;;;42.97;19.73;;;;;;;9.14;100.00;99271.34;5174646;27;20057;-46
2022/11/08 00:43:59;;;;;;;40.05;18.75;;;;;;;9.36;100.00;99262.53;5174760;27;20130;-49
2022/11/08 00:46:25;;;;;;;38.92;20.30;;;;;;;9.23;100.00;99271.97;5174959;27;20054;-47
2022/11/08 00:48:52;;;;;;;42.42;19.10;;;;;;;9.08;100.00;99276.28;5174460;27;20057;-48
2022/11/08 00:51:18;;;;;;;43.47;20.45;;;;;;;8.97;100.00;99269.75;5174685;27;20060;-48
2022/11/08 00:53:45;;;;;;;45.42;20.50;;;;;;;9.27;100.00;99250.97;5174452;27;20089;-46
2022/11/08 00:56:12;;;;;;;43.90;19.80;;;;;;;8.79;100.00;99274.72;5174441;27;20137;-47
2022/11/08 00:58:40;;;;;;;42.63;20.63;;;;;;;8.80;100.00;99253.69;5174544;27;20053;-46
2022/11/08 01:01:11;;;;;;;38.78;18.65;;;;;;;8.65;100.00;99263.44;5174385;27;20048;-47
2022/11/08 01:03:38;;;;;;;35.13;17.98;;;;;;;8.36;100.00;99248.94;5174435;27;20106;-47
2022/11/08 01:06:07;;;;;;;42.42;18.15;;;;;;;8.43;100.00;99224.59;5174599;27;20088;-47
2022/11/08 01:08:33;;;;;;;39.03;18.33;;;;;;;8.29;100.00;99246.00;5174328;27;20128;-47
2022/11/08 01:11:02;;;;;;;39.70;18.77;;;;;;;8.19;100.00;99224.66;5174095;27;20497;-47
2022/11/08 01:13:29;;;;;;;40.55;17.23;;;;;;;8.04;100.00;99214.50;5173973;27;20408;-48
2022/11/08 01:15:55;;;;;;;33.50;17.75;;;;;;;7.86;100.00;99197.59;5174207;27;20063;-46
2022/11/08 01:18:21;;;;;;;48.10;19.35;;;;;;;8.05;100.00;99177.84;5174342;27;20394;-48
2022/11/08 01:20:49;;;;;;;45.45;18.95;;;;;;;7.65;100.00;99167.75;5173957;27;20050;-47
2022/11/08 01:23:17;;;;;;;45.22;19.33;;;;;;;7.92;100.00;99156.06;5174016;27;20054;-47
2022/11/08 01:25:45;;;;;;;46.22;22.10;;;;;;;8.12;100.00;99157.00;5174160;27;20065;-46
2022/11/08 01:28:12;;;;;;;49.33;21.77;;;;;;;8.16;100.00;99163.38;5173960;27;20053;-46
2022/11/08 01:30:41;;;;;;;42.47;19.60;;;;;;;8.10;100.00;99183.06;5173823;27;20050;-47
2022/11/08 01:33:08;;;;;;;43.20;21.00;;;;;;;7.98;100.00;99183.91;5174238;27;20098;-47
2022/11/08 01:35:35;;;;;;;50.22;21.20;;;;;;;8.12;100.00;99178.03;5173795;27;20437;-46
2022/11/08 01:38:02;;;;;;;47.85;20.77;;;;;;;8.18;100.00;99193.03;5173844;27;20428;-47
2022/11/08 01:40:30;;;;;;;46.45;21.38;;;;;;;8.25;100.00;99201.44;5173805;27;20064;-48
2022/11/08 01:42:57;;;;;;;47.80;19.85;;;;;;;8.27;100.00;99214.75;5173513;27;20149;-46
2022/11/08 01:46:10;;;;;;;39.92;20.88;;;;;;;8.18;100.00;99217.63;5173824;27;20054;-47
2022/11/08 01:48:39;;;;;;;40.63;20.27;;;;;;;8.05;100.00;99211.41;5173723;27;20056;-47
2022/11/08 01:51:09;;;;;;;48.22;21.80;;;;;;;8.06;100.00;99195.81;5173871;27;20510;-47
2022/11/08 01:53:36;;;;;;;42.20;19.52;;;;;;;8.10;100.00;99194.00;5173493;27;20141;-48
2022/11/08 01:56:03;;;;;;;43.45;20.08;;;;;;;8.09;100.00;99204.09;5173338;27;20046;-46
2022/11/08 01:58:33;;;;;;;44.55;20.90;;;;;;;8.28;100.00;99203.47;5173548;27;20046;-47
2022/11/08 02:01:01;;;;;;;47.97;21.55;;;;;;;8.04;100.00;99212.56;5173500;27;20050;-47
2022/11/08 02:03:31;;;;;;;51.17;20.80;;;;;;;7.97;100.00;99194.03;5173466;27;20060;-49
2022/11/08 02:05:58;;;;;;;47.92;19.55;;;;;;;7.93;100.00;99184.13;5173311;27;20056;-47
2022/11/08 02:08:31;;;;;;;47.33;20.38;;;;;;;7.79;100.00;99190.78;5173512;27;20099;-48
2022/11/08 02:10:58;;;;;;;44.13;19.13;;;;;;;7.95;100.00;99173.69;5173348;27;20042;-47
2022/11/08 02:13:27;;;;;;;43.42;19.83;;;;;;;8.10;100.00;99177.63;5173488;27;20047;-46
2022/11/08 02:15:53;;;;;;;44.42;20.25;;;;;;;8.25;100.00;99163.19;5173286;27;20187;-50
2022/11/08 02:18:22;;;;;;;47.63;20.05;;;;;;;8.31;100.00;99178.19;5173526;27;20051;-47
2022/11/08 02:20:56;;;;;;;50.17;21.17;;;;;;;8.34;100.00;99182.97;5173165;27;20046;-48
2022/11/08 02:23:26;;;;;;;44.97;21.17;;;;;;;8.33;100.00;99186.84;5172741;27;20061;-47
2022/11/08 02:25:53;;;;;;;42.10;20.85;;;;;;;8.07;100.00;99184.56;5172579;27;20054;-46
2022/11/08 02:28:19;;;;;;;49.35;20.92;;;;;;;8.51;100.00;99187.34;5173163;27;20050;-47
2022/11/08 02:30:45;;;;;;;44.20;19.75;;;;;;;8.51;100.00;99197.47;5173166;27;20072;-47
2022/11/08 02:33:16;;;;;;;41.08;20.23;;;;;;;8.36;100.00;99196.25;5172854;27;20050;-47
2022/11/08 02:35:45;;;;;;;45.05;19.42;;;;;;;8.59;100.00;99212.91;5173046;27;20465;-46
2022/11/08 02:38:12;;;;;;;43.65;19.60;;;;;;;8.69;100.00;99229.56;5172946;27;20042;-47
2022/11/08 02:40:48;;;;;;;40.25;20.15;;;;;;;8.47;100.00;99244.63;5172940;27;20439;-46
2022/11/08 02:43:15;;;;;;;48.35;21.95;;;;;;;8.38;100.00;99234.97;5173098;27;20419;-46
2022/11/08 02:45:42;;;;;;;45.33;21.63;;;;;;;8.59;100.00;99227.34;5172963;27;20668;-47
2022/11/08 02:48:08;;;;;;;45.42;21.75;;;;;;;8.41;100.00;99226.88;5172940;27;20046;-48
2022/11/08 02:50:34;;;;;;;38.50;19.60;;;;;;;8.64;100.00;99226.31;5173030;27;20073;-46
2022/11/08 02:53:01;;;;;;;45.33;20.60;;;;;;;8.60;100.00;99241.84;5172691;27;20054;-47
2022/11/08 02:55:28;;;;;;;47.85;21.23;;;;;;;8.43;100.00;99251.09;5172600;27;20046;-46
2022/11/08 02:57:54;;;;;;;47.03;20.02;;;;;;;8.48;100.00;99227.06;5172980;27;20094;-48
2022/11/08 03:00:22;;;;;;;37.72;19.30;;;;;;;8.52;100.00;99229.09;5172566;27;20054;-46
2022/11/08 03:02:52;;;;;;;55.30;20.63;;;;;;;8.65;100.00;99238.84;5172024;27;20094;-46
2022/11/08 03:05:18;;;;;;;47.00;20.88;;;;;;;8.07;100.00;99255.56;5172626;27;20649;-47
2022/11/08 03:07:44;;;;;;;51.63;20.23;;;;;;;8.61;100.00;99244.22;5172765;27;20549;-46
2022/11/08 03:10:11;;;;;;;46.85;20.88;;;;;;;8.59;100.00;99256.63;5172641;27;20042;-46
2022/11/08 03:12:38;;;;;;;48.67;20.83;;;;;;;8.55;100.00;99262.00;5172465;27;20057;-46
2022/11/08 03:15:07;;;;;;;48.10;20.48;;;;;;;8.53;100.00;99255.28;5172369;27;20102;-46
2022/11/08 03:17:34;;;;;;;42.55;20.75;;;;;;;8.35;100.00;99265.69;5172657;27;20050;-47
2022/11/08 03:20:00;;;;;;;37.20;19.70;;;;;;;8.35;100.00;99233.69;5172522;27;20052;-46
2022/11/08 03:22:26;;;;;;;42.50;19.92;;;;;;;8.40;100.00;99235.44;5172533;27;20390;-46
2022/11/08 03:24:53;;;;;;;38.72;19.85;;;;;;;8.50;100.00;99237.66;5172528;27;20503;-46
2022/11/08 03:27:19;;;;;;;39.03;18.80;;;;;;;8.39;100.00;99251.00;5172267;27;20054;-48
2022/11/08 03:29:46;;;;;;;42.42;19.27;;;;;;;8.42;100.00;99255.78;5172264;27;20083;-46
2022/11/08 03:32:13;;;;;;;47.30;19.83;;;;;;;8.07;100.00;99250.09;5172046;27;20497;-46
2022/11/08 03:34:40;;;;;;;40.25;20.58;;;;;;;8.33;100.00;99227.81;5172214;27;20050;-46
2022/11/08 03:37:08;;;;;;;45.55;19.33;;;;;;;8.33;100.00;99216.88;5175462;27;20198;-46
2022/11/08 03:39:35;;;;;;;41.92;20.50;;;;;;;8.47;100.00;99224.72;5175871;27;20417;-46
2022/11/08 03:42:03;;;;;;;39.65;19.75;;;;;;;8.28;100.00;99238.19;5175726;27;20106;-46
2022/11/08 03:44:30;;;;;;;40.60;19.58;;;;;;;8.20;100.00;99229.00;5175863;27;20046;-46
2022/11/08 03:46:56;;;;;;;39.35;20.60;;;;;;;8.27;100.00;99244.78;5175925;27;20065;-47
2022/11/08 03:49:22;;;;;;;40.63;21.23;;;;;;;8.40;100.00;99224.50;5175779;27;20050;-47
2022/11/08 03:51:49;;;;;;;42.28;20.55;;;;;;;8.28;100.00;99240.91;5175712;27;20050;-48
2022/11/08 03:54:15;;;;;;;48.15;19.98;;;;;;;8.38;100.00;99248.63;5175391;27;20050;-46
2022/11/08 03:56:42;;;;;;;38.85;19.48;;;;;;;8.40;100.00;99252.63;5175765;27;20046;-49
2022/11/08 03:59:10;;;;;;;39.80;18.88;;;;;;;8.31;100.00;99251.16;5175510;27;20074;-47
2022/11/08 04:01:36;;;;;;;42.60;20.52;;;;;;;8.38;100.00;99259.56;5175426;27;20046;-46
2022/11/08 04:04:02;;;;;;;39.42;19.30;;;;;;;8.34;100.00;99255.91;5175298;27;20054;-48
2022/11/08 04:06:29;;;;;;;45.25;19.70;;;;;;;8.17;100.00;99260.53;5175390;27;20433;-46
2022/11/08 04:08:56;;;;;;;42.00;19.85;;;;;;;8.34;100.00;99250.47;5175415;27;20100;-46
2022/11/08 04:16:52;;;;;;;38.88;19.98;;;;;;;7.68;100.00;99214.22;5175243;27;20046;-47
2022/11/08 04:22:02;;;;;;;41.97;19.73;;;;;;;7.88;100.00;99178.94;5174959;27;20145;-50
2022/11/08 04:24:29;;;;;;;46.95;19.55;;;;;;;8.28;100.00;99194.47;5175164;27;20046;-46
2022/11/08 04:26:56;;;;;;;45.55;19.65;;;;;;;8.36;100.00;99213.44;5174930;27;20426;-48
2022/11/08 04:29:22;;;;;;;39.42;19.27;;;;;;;8.14;100.00;99238.59;5174924;27;20089;-46
2022/11/08 04:31:48;;;;;;;44.72;21.02;;;;;;;8.15;100.00;99223.78;5174905;27;20053;-45
2022/11/08 04:34:14;;;;;;;38.28;20.23;;;;;;;8.08;100.00;99220.84;5174725;27;20082;-46
2022/11/08 04:36:41;;;;;;;39.17;18.85;;;;;;;8.39;100.00;99233.84;5174762;27;20101;-48
2022/11/08 04:39:07;;;;;;;39.60;19.80;;;;;;;8.33;100.00;99246.94;5174894;27;20529;-46
2022/11/08 04:41:34;;;;;;;39.95;19.33;;;;;;;8.21;100.00;99266.88;5174879;27;20046;-45
2022/11/08 04:44:00;;;;;;;40.58;19.08;;;;;;;8.43;100.00;99262.84;5175049;27;20386;-46
2022/11/08 04:46:28;;;;;;;40.42;19.38;;;;;;;8.34;100.00;99273.09;5174754;27;20052;-48
2022/11/08 04:48:56;;;;;;;39.53;19.15;;;;;;;8.40;100.00;99279.94;5174033;27;20046;-46
2022/11/08 04:51:25;;;;;;;43.72;19.27;;;;;;;8.38;100.00;99281.44;5175013;27;20050;-48
2022/11/08 04:53:52;;;;;;;41.95;19.70;;;;;;;8.40;100.00;99296.34;5174690;27;20046;-49
2022/11/08 04:56:20;;;;;;;43.92;17.48;;;;;;;8.52;100.00;99314.59;5174475;27;20106;-49
2022/11/08 04:58:48;;;;;;;42.20;19.52;;;;;;;8.59;100.00;99336.66;5174339;27;20088;-47
2022/11/08 05:01:17;;;;;;;45.60;20.85;;;;;;;8.39;100.00;99341.16;5174321;27;20056;-47
2022/11/08 05:03:45;;;;;;;38.47;17.98;;;;;;;8.58;100.00;99339.75;5174280;27;20520;-46
2022/11/08 05:06:13;;;;;;;32.08;17.25;;;;;;;8.29;100.00;99352.53;5174144;27;20081;-48
2022/11/08 05:08:40;;;;;;;39.30;19.08;;;;;;;8.23;100.00;99343.00;5174125;27;20480;-50
2022/11/08 05:11:08;;;;;;;38.30;18.42;;;;;;;8.21;100.00;99343.34;5174170;27;20117;-51
2022/11/08 05:13:35;;;;;;;37.20;17.50;;;;;;;8.41;100.00;99347.09;5174078;27;20050;-51
2022/11/08 05:16:04;;;;;;;34.13;15.98;;;;;;;8.28;100.00;99341.97;5174320;27;20142;-50
2022/11/08 05:18:31;;;;;;;36.60;17.25;;;;;;;8.44;100.00;99348.34;5174283;27;20054;-52
2022/11/08 05:23:44;;;;;;;34.42;16.67;;;;;;;8.28;100.00;99361.88;5173956;27;20478;-53
2022/11/08 05:26:11;;;;;;;35.08;17.63;;;;;;;8.41;100.00;99360.75;5173785;27;20138;-51
2022/11/08 05:28:39;;;;;;;38.67;18.52;;;;;;;8.13;100.00;99368.03;5173887;27;20129;-50
2022/11/08 05:31:07;;;;;;;33.72;16.02;;;;;;;8.22;100.00;99361.31;5173868;27;20092;-51
2022/11/08 05:33:34;;;;;;;29.27;15.73;;;;;;;8.08;100.00;99368.28;5173853;27;20141;-52
2022/11/08 05:36:01;;;;;;;33.83;15.80;;;;;;;8.33;100.00;99356.19;5173787;27;20054;-55
2022/11/08 05:38:29;;;;;;;31.27;15.50;;;;;;;8.47;100.00;99369.50;5173803;27;20050;-53
2022/11/08 05:40:55;;;;;;;38.47;18.75;;;;;;;8.28;100.00;99383.75;5173650;27;20076;-53
2022/11/08 05:43:21;;;;;;;43.72;17.30;;;;;;;8.50;100.00;99385.22;5173508;27;20133;-51
2022/11/08 05:45:48;;;;;;;35.78;16.88;;;;;;;8.54;100.00;99402.50;5173963;27;20053;-54
2022/11/08 05:48:15;;;;;;;36.88;17.27;;;;;;;8.27;100.00;99398.53;5174010;27;20474;-49
2022/11/08 05:50:41;;;;;;;37.72;17.63;;;;;;;8.47;100.00;99403.09;5173555;27;20056;-50
2022/11/08 05:53:07;;;;;;;44.90;17.67;;;;;;;8.45;100.00;99408.09;5173600;27;20515;-50
2022/11/08 05:55:33;;;;;;;43.40;18.92;;;;;;;8.54;100.00;99421.63;5173134;27;20450;-52
2022/11/08 05:58:00;;;;;;;37.75;17.77;;;;;;;8.47;100.00;99415.97;5173283;27;20054;-54
2022/11/08 06:00:26;;;;;;;34.78;17.05;;;;;;;8.81;100.00;99419.28;5171988;27;20083;-50
2022/11/08 06:02:52;;;;;;;46.00;17.90;;;;;;;8.80;100.00;99429.44;5173254;27;20042;-51
2022/11/08 06:05:19;;;;;;;32.95;17.50;;;;;;;8.55;100.00;99428.69;5172051;27;20046;-52
2022/11/08 06:07:45;;;;;;;36.15;17.73;;;;;;;8.67;100.00;99427.88;5173536;27;20050;-55
2022/11/08 06:10:12;;;;;;;36.15;18.17;;;;;;;8.60;100.00;99427.66;5159313;27;20050;-52
2022/11/08 06:12:38;;;;;;;33.60;17.83;;;;;;;8.40;100.00;99427.47;5151470;27;20088;-50
2022/11/08 06:15:05;;;;;;;38.83;19.60;;;;;;;8.44;100.00;99409.25;5159218;27;20050;-53
2022/11/08 06:17:32;;;;;;;42.20;18.70;;;;;;;8.64;100.00;99398.50;5160730;27;20575;-54
2022/11/08 06:19:58;;;;;;;40.03;18.33;;;;;;;8.63;100.00;99399.63;5164399;27;20046;-52
2022/11/08 06:22:25;;;;;;;44.65;19.35;;;;;;;8.99;100.00;99414.31;5152314;27;20056;-50
2022/11/08 06:24:51;;;;;;;37.33;19.60;;;;;;;8.66;100.00;99424.34;5162629;27;20833;-49
2022/11/08 06:27:18;;;;;;;35.70;19.02;;;;;;;8.66;100.00;99413.41;5172898;27;20054;-53
2022/11/08 06:29:44;;;;;;;45.63;20.38;;;;;;;8.84;100.00;99405.72;5173373;27;20137;-51
2022/11/08 06:32:10;;;;;;;34.65;19.13;;;;;;;8.53;100.00;99405.56;5172930;27;20110;-55
2022/11/08 06:34:37;;;;;;;41.63;19.73;;;;;;;8.43;100.00;99401.38;5162494;27;20774;-52
2022/11/08 06:37:04;;;;;;;41.92;20.75;;;;;;;8.73;100.00;99404.63;5172950;27;20053;-53
2022/11/08 06:39:31;;;;;;;42.00;20.25;;;;;;;8.55;100.00;99406.03;5173271;27;20763;-50
2022/11/08 06:41:57;;;;;;;43.47;20.23;;;;;;;8.52;100.00;99395.78;5166811;27;20101;-50
2022/11/08 06:44:24;;;;;;;42.28;20.05;;;;;;;8.42;100.00;99386.91;5172924;27;20092;-48
2022/11/08 06:46:50;;;;;;;45.08;20.33;;;;;;;8.53;100.00;99381.78;5163096;27;20061;-48
2022/11/08 06:49:16;;;;;;;44.80;21.70;;;;;;;8.30;100.00;99377.91;5151669;27;20043;-49
2022/11/08 06:51:43;;;;;;;39.33;20.77;;;;;;;8.79;100.00;99361.41;5151655;27;20051;-51
2022/11/08 06:54:09;;;;;;;37.33;18.60;;;;;;;8.32;100.00;99378.38;5151709;27;20453;-49
2022/11/08 06:56:36;;;;;;;40.33;19.83;;;;;;;8.64;100.00;99363.75;5151728;27;20137;-50
2022/11/08 06:59:02;;;;;;;39.58;19.58;;;;;;;8.47;100.00;99355.84;5151569;27;20042;-48
2022/11/08 07:01:29;;;;;;;38.42;19.40;;;;;;;8.79;100.00;99364.94;5151555;27;20042;-50
2022/11/08 07:03:55;;;;;;;43.80;20.63;;;;;;;8.30;100.00;99384.19;5151336;27;20058;-48
2022/11/08 07:06:21;;;;;;;39.78;20.55;;;;;;;8.32;100.00;99365.50;5151354;27;20047;-48
2022/11/08 07:08:48;;;;;;;42.85;20.52;;;;;;;8.57;100.00;99366.28;5151608;27;20348;-48
2022/11/08 07:11:14;;;;;;;43.90;22.20;;;;;;;8.32;100.00;99373.72;5150786;27;20047;-49
2022/11/08 07:13:41;;;;;;;40.45;19.77;;;;;;;8.48;100.00;99365.63;5151238;27;20062;-48
2022/11/08 07:16:08;;;;;;;38.47;20.35;;;;;;;8.71;100.00;99374.09;5151391;27;20099;-48
2022/11/08 07:18:35;;;;;;;41.50;20.08;;;;;;;8.20;100.00;99360.09;5151342;27;20058;-49
2022/11/08 07:21:02;;;;;;;35.85;20.25;;;;;;;8.37;100.00;99351.63;5151225;27;20091;-48
2022/11/08 07:23:28;;;;;;;45.60;21.10;;;;;;;8.41;100.00;99346.28;5151312;27;20051;-47
2022/11/08 07:25:55;;;;;;;38.72;20.83;;;;;;;8.46;100.00;99356.97;5151226;27;20053;-47
2022/11/08 07:28:21;;;;;;;37.75;18.88;;;;;;;8.63;100.00;99351.25;5151022;27;20510;-50
2022/11/08 07:30:49;;;;;;;41.85;20.90;;;;;;;8.77;100.00;99371.94;5150966;27;20150;-47
2022/11/08 07:33:15;;;;;;;41.35;20.55;;;;;;;9.03;100.00;99382.38;5151069;27;20066;-47
2022/11/08 07:35:43;;;;;;;37.70;19.80;;;;;;;8.61;100.00;99393.72;5150881;27;20115;-47
2022/11/08 07:38:10;;;;;;;37.42;18.90;;;;;;;8.86;100.00;99389.78;5150829;27;20078;-52
2022/11/08 07:40:36;;;;;;;44.20;20.33;;;;;;;9.10;100.00;99396.28;5150932;27;20099;-47
2022/11/08 07:43:02;;;;;;;31.92;17.33;;;;;;;8.47;100.00;99407.75;5151020;27;20062;-47
2022/11/08 07:45:29;;;;;;;38.58;18.33;;;;;;;8.68;100.00;99385.72;5150960;27;20053;-47
2022/11/08 07:47:59;;;;;;;40.63;20.90;;;;;;;8.57;100.00;99379.94;5150865;27;20046;-48
2022/11/08 07:50:26;;;;;;;39.58;20.17;;;;;;;8.40;100.00;99372.03;5150973;27;20046;-48
2022/11/08 07:52:52;;;;;;;36.97;20.50;;;;;;;8.44;100.00;99378.41;5150837;27;20046;-48
2022/11/08 07:55:19;;;;;;;36.28;18.77;;;;;;;8.43;100.00;99371.31;5150810;27;20051;-48
2022/11/08 07:57:45;;;;;;;41.00;19.80;;;;;;;9.05;100.00;99363.69;5150609;27;20047;-49
2022/11/08 08:00:13;;;;;;;35.38;19.98;;;;;;;9.00;100.00;99396.75;5150495;27;20069;-49
2022/11/08 08:02:40;;;;;;;36.63;19.88;;;;;;;9.08;100.00;99415.75;5150437;27;20054;-50
2022/11/08 08:05:08;;;;;;;38.17;19.50;;;;;;;9.19;100.00;99433.25;5150877;27;20120;-48
2022/11/08 08:07:34;;;;;;;40.33;19.13;;;;;;;9.12;100.00;99451.41;5150494;27;20061;-48
2022/11/08 08:10:00;;;;;;;34.17;19.20;;;;;;;8.87;100.00;99469.84;5150310;27;20407;-48
2022/11/08 08:12:27;;;;;;;36.10;17.63;;;;;;;8.86;100.00;99452.66;5150440;27;20493;-50
2022/11/08 08:14:53;;;;;;;31.58;17.58;;;;;;;9.01;100.00;99450.31;5150370;27;20047;-49
2022/11/08 08:17:19;;;;;;;32.00;17.35;;;;;;;8.97;100.00;99465.84;5150521;27;20273;-51
2022/11/08 08:19:46;;;;;;;38.83;18.35;;;;;;;9.26;100.00;99460.00;5150574;27;20126;-50
2022/11/08 08:22:13;;;;;;;31.17;17.02;;;;;;;8.98;100.00;99479.16;5150977;27;20462;-49
2022/11/08 08:24:39;;;;;;;35.92;17.40;;;;;;;9.46;100.00;99488.31;5153539;27;20059;-49
2022/11/08 08:27:05;;;;;;;41.85;18.23;;;;;;;9.55;100.00;99488.16;5153911;27;20137;-52
2022/11/08 08:29:31;;;;;;;41.05;18.27;;;;;;;9.46;100.00;99491.03;5153706;27;20050;-52
2022/11/08 08:31:58;;;;;;;29.13;16.17;;;;;;;9.45;100.00;99497.66;5154234;27;20050;-49
2022/11/08 08:34:24;;;;;;;32.67;17.73;;;;;;;9.44;100.00;99507.03;5153803;27;20058;-49
2022/11/08 08:36:50;;;;;;;37.35;15.45;;;;;;;8.72;100.00;99512.34;5153891;27;20050;-50
2022/11/08 08:39:17;;;;;;;32.13;17.17;;;;;;;8.99;100.00;99490.88;5153618;27;20051;-49
2022/11/08 08:41:43;;;;;;;39.00;17.75;;;;;;;9.56;100.00;99473.31;5153658;27;20110;-49
2022/11/08 08:44:10;;;;;;;36.78;18.35;;;;;;;9.26;100.00;99484.63;5153669;27;20133;-50
2022/11/08 08:46:36;;;;;;;38.38;17.42;;;;;;;9.24;100.00;99480.66;5153577;27;20459;-51
2022/11/08 08:49:02;;;;;;;31.98;17.10;;;;;;;9.57;100.00;99481.19;5153908;27;20043;-50
2022/11/08 08:51:29;;;;;;;36.47;16.77;;;;;;;9.47;100.00;99478.19;5153517;27;20096;-49
2022/11/08 08:53:55;;;;;;;31.15;15.85;;;;;;;9.70;100.00;99500.31;5153729;27;20061;-50
2022/11/08 08:56:22;;;;;;;26.90;15.35;;;;;;;9.38;100.00;99500.22;5153503;27;20107;-50
2022/11/08 08:58:49;;;;;;;27.23;15.38;;;;;;;9.55;100.00;99501.84;5153627;27;20051;-53
2022/11/08 09:01:15;;;;;;;32.30;16.38;;;;;;;9.19;100.00;99498.91;5153486;27;20414;-50
2022/11/08 09:03:41;;;;;;;31.38;16.55;;;;;;;9.17;100.00;99497.69;5153712;27;20512;-51
2022/11/08 09:06:08;;;;;;;28.20;14.30;;;;;;;9.51;100.00;99490.81;5153347;27;20050;-50
2022/11/08 09:08:34;;;;;;;31.13;15.98;;;;;;;10.06;100.00;99494.59;5153377;27;20126;-52
2022/11/08 09:11:01;;;;;;;27.75;14.90;;;;;;;9.68;100.00;99511.59;5153444;27;20147;-50
2022/11/08 09:13:30;;;;;;;30.85;17.33;;;;;;;10.11;100.00;99513.50;5153163;27;20429;-50
2022/11/08 09:15:57;;;;;;;33.25;16.08;;;;;;;9.52;100.00;99525.22;5153525;27;20050;-48
2022/11/08 09:18:24;;;;;;;32.08;16.10;;;;;;;9.69;100.00;99515.13;5153354;27;20043;-49
2022/11/08 09:20:50;;;;;;;28.58;16.98;;;;;;;10.33;100.00;99514.88;5153328;27;20086;-52
2022/11/08 09:23:16;;;;;;;34.17;16.38;;;;;;;9.74;100.00;99517.63;5152957;27;20562;-48
2022/11/08 09:25:43;;;;;;;31.17;16.52;;;;;;;9.79;100.00;99518.13;5153004;27;20174;-50
2022/11/08 09:28:09;;;;;;;27.05;15.18;;;;;;;10.22;100.00;99521.19;5152782;27;20510;-49
2022/11/08 09:30:36;;;;;;;28.42;16.25;;;;;;;10.45;100.00;99521.38;5153159;27;20058;-50
2022/11/08 09:33:02;;;;;;;31.63;16.73;;;;;;;10.69;100.00;99512.16;5152476;27;20055;-50
2022/11/08 09:35:29;;;;;;;28.52;16.42;;;;;;;10.96;100.00;99507.66;5152892;27;20050;-50
2022/11/08 09:37:56;;;;;;;28.98;15.27;;;;;;;11.06;100.00;99498.84;5153130;27;20443;-53
2022/11/08 09:40:29;;;;;;;28.45;15.05;;;;;;;10.91;100.00;99477.78;5152516;27;20130;-52
2022/11/08 09:43:05;;;;;;;23.92;14.00;;;;;;;10.40;100.00;99459.41;5152966;27;20498;-51
2022/11/08 09:45:37;;;;;;;25.20;12.27;;;;;;;10.46;100.00;99460.75;5152563;27;20050;-51
2022/11/08 09:48:06;;;;;;;23.85;12.68;;;;;;;10.49;100.00;99464.69;5152901;27;20043;-53
2022/11/08 09:50:37;;;;;;;27.90;12.32;;;;;;;10.93;100.00;99468.03;5152628;27;20096;-49
2022/11/08 09:53:17;;;;;;;23.23;12.50;;;;;;;10.76;100.00;99457.47;5152645;27;20521;-48
2022/11/08 09:55:47;;;;;;;24.58;11.95;;;;;;;10.83;100.00;99455.69;5152651;27;20047;-49
2022/11/08 09:58:23;;;;;;;29.90;12.60;;;;;;;11.10;100.00;99464.06;5152660;27;20065;-50
2022/11/08 10:00:50;;;;;;;21.08;12.13;;;;;;;11.00;100.00;99443.50;5152818;27;20085;-49
2022/11/08 10:03:18;;;;;;;23.10;11.90;;;;;;;10.76;100.00;99452.78;5152326;27;20145;-51
2022/11/08 10:05:58;;;;;;;20.15;11.98;;;;;;;10.58;100.00;99488.03;5152786;27;20049;-50
2022/11/08 10:08:31;;;;;;;22.90;12.60;;;;;;;11.12;100.00;99489.19;5152346;27;20050;-49
2022/11/08 10:11:11;;;;;;;22.80;12.25;;;;;;;10.96;100.00;99483.78;5152585;27;20110;-50
2022/11/08 10:13:48;;;;;;;22.45;11.38;;;;;;;11.12;100.00;99483.69;5152297;27;20057;-50
2022/11/08 10:16:22;;;;;;;16.15;10.75;;;;;;;10.77;100.00;99456.31;5152369;27;20054;-48
2022/11/08 10:18:59;;;;;;;;;;;;;;;11.26;100.00;99467.53;5152703;27;20047;-49
2022/11/08 10:21:51;;;;;;;19.73;10.98;;;;;;;11.17;100.00;99445.00;5152309;27;19982;-49
2022/11/08 10:24:25;;;;;;;19.83;11.10;;;;;;;11.16;100.00;99434.38;5152644;27;20069;-52
2022/11/08 10:26:54;;;;;;;18.65;10.73;;;;;;;10.93;100.00;99410.44;5151904;27;20094;-49
2022/11/08 10:29:22;;;;;;;15.85;9.90;;;;;;;10.79;100.00;99446.56;5152086;27;20054;-52
2022/11/08 10:32:00;;;;;;;18.13;10.07;;;;;;;11.12;100.00;99430.78;5152274;27;20050;-50
2022/11/08 10:34:38;;;;;;;18.33;9.82;;;;;;;11.04;100.00;99421.63;5151879;27;20078;-52
2022/11/08 10:37:05;;;;;;;17.65;10.35;;;;;;;10.89;100.00;99414.25;5152232;27;20420;-51
2022/11/08 10:39:38;;;;;;;18.25;10.00;;;;;;;10.98;100.00;99439.50;5151756;27;20367;-49
2022/11/08 10:42:10;;;;;;;19.02;10.95;;;;;;;11.04;100.00;99427.91;5151874;27;20123;-51
2022/11/08 10:44:39;;;;;;;20.35;10.38;;;;;;;11.08;100.00;99420.53;5151319;27;20055;-51
2022/11/08 10:47:12;;;;;;;17.88;9.95;;;;;;;10.77;100.00;99409.72;5151475;27;20050;-52
2022/11/08 10:49:41;;;;;;;17.77;9.55;;;;;;;10.63;100.00;99432.13;5151731;27;20060;-50
2022/11/08 10:52:17;;;;;;;17.48;9.85;;;;;;;10.78;100.00;99450.47;5151822;27;20047;-52
2022/11/08 10:54:46;;;;;;;23.75;11.82;;;;;;;10.79;100.00;99446.56;5151884;27;20047;-50
2022/11/08 10:57:15;;;;;;;16.08;10.27;;;;;;;11.06;100.00;99465.94;5151632;27;20556;-53
2022/11/08 10:59:43;;;;;;;20.02;10.88;;;;;;;11.00;100.00;99432.53;5151900;27;20486;-49
2022/11/08 11:02:24;;;;;;;19.85;10.77;;;;;;;10.74;100.00;99440.59;5151285;27;20050;-53
2022/11/08 11:04:52;;;;;;;20.92;9.50;;;;;;;10.87;100.00;99471.44;5151702;27;20545;-50
2022/11/08 11:07:30;;;;;;;23.13;11.55;;;;;;;11.01;100.00;99467.03;5151524;27;20141;-50
2022/11/08 11:09:56;;;;;;;21.35;10.90;;;;;;;10.99;100.00;99472.06;5151673;27;20153;-51
2022/11/08 11:12:22;;;;;;;19.55;10.32;;;;;;;11.00;100.00;99470.94;5151641;27;20050;-53
2022/11/08 11:14:57;;;;;;;14.57;9.25;;;;;;;10.45;100.00;99469.31;5151215;27;20061;-51
2022/11/08 11:17:29;;;;;;;19.02;8.90;;;;;;;10.82;100.00;99477.97;5151648;27;20053;-51
2022/11/08 11:19:57;;;;;;;23.45;10.45;;;;;;;10.93;100.00;99483.69;5151456;27;20433;-52
2022/11/08 11:22:28;;;;;;;15.98;9.73;;;;;;;10.76;100.00;99480.22;5151131;27;20103;-50
2022/11/08 11:24:55;;;;;;;19.60;10.00;;;;;;;11.11;100.00;99481.31;5150807;27;20130;-52
2022/11/08 11:27:25;;;;;;;17.85;10.40;;;;;;;10.80;100.00;99483.03;5151450;27;20461;-51
2022/11/08 11:30:20;;;;;;;16.60;9.32;;;;;;;10.72;100.00;99473.84;5151009;27;20051;-50
2022/11/08 11:32:55;;;;;;;17.70;9.43;;;;;;;10.58;100.00;99484.50;5151014;27;20054;-53
2022/11/08 11:35:24;;;;;;;16.23;9.93;;;;;;;10.93;100.00;99487.25;5151212;27;20049;-51
2022/11/08 11:37:53;;;;;;;21.92;11.10;;;;;;;10.79;100.00;99484.97;5151101;27;20077;-51
2022/11/08 11:40:26;;;;;;;16.95;8.90;;;;;;;10.91;100.00;99491.50;5151088;27;20569;-53